Time;durP1;ratioP1;P1;durP2;ratioP2;P2;SDS_P1;SDS_P2;PMS_P1;PMS_P2;Temp;Humidity;BMP_temperature;BMP_pressure;BME280_temperature;BME280_humidity;BME280_pressure;Samples;Min_cycle;Max_cycle;Signal;HPM_P1;HPM_P2
2021/12/26 00:00:30;;;;;;;3.35;2.88;;;;;;;-3.14;100.00;100861.81;5047783;28;20688;-71
2021/12/26 00:02:57;;;;;;;4.97;2.80;;;;;;;-3.04;100.00;100862.31;5025104;28;20102;-71
2021/12/26 00:05:22;;;;;;;4.75;2.92;;;;;;;-3.11;100.00;100864.13;5058548;28;20360;-72
2021/12/26 00:07:48;;;;;;;4.28;3.00;;;;;;;-3.15;100.00;100857.47;5063363;28;20443;-72
2021/12/26 00:10:16;;;;;;;4.15;2.75;;;;;;;-3.17;100.00;100860.31;5061661;28;20169;-73
2021/12/26 00:12:42;;;;;;;3.40;2.67;;;;;;;-3.18;100.00;100852.47;5060753;28;20116;-73
2021/12/26 00:15:09;;;;;;;5.50;3.08;;;;;;;-3.40;100.00;100857.81;5019333;28;20033;-72
2021/12/26 00:17:35;;;;;;;4.32;3.03;;;;;;;-3.21;100.00;100858.25;5013593;28;20045;-73
2021/12/26 00:20:02;;;;;;;4.03;2.97;;;;;;;-3.33;100.00;100857.91;5054333;28;20040;-72
2021/12/26 00:22:28;;;;;;;4.63;2.53;;;;;;;-3.31;100.00;100855.88;5061356;28;20036;-73
2021/12/26 00:24:53;;;;;;;4.78;2.97;;;;;;;-3.55;100.00;100862.41;5061934;28;20033;-73
2021/12/26 00:27:19;;;;;;;5.00;2.55;;;;;;;-3.31;100.00;100869.28;5059104;28;20555;-73
2021/12/26 00:29:47;;;;;;;4.95;3.15;;;;;;;-3.21;100.00;100871.66;5031972;28;20275;-72
2021/12/26 00:32:14;;;;;;;5.60;2.88;;;;;;;-3.15;100.00;100870.88;5051828;28;20033;-73
2021/12/26 00:34:40;;;;;;;3.83;2.88;;;;;;;-3.45;100.00;100862.94;5024685;28;20025;-71
2021/12/26 00:37:07;;;;;;;4.78;2.85;;;;;;;-3.39;100.00;100867.53;5043859;28;20099;-73
2021/12/26 00:39:33;;;;;;;4.13;2.97;;;;;;;-3.52;100.00;100867.41;5048780;28;20095;-73
2021/12/26 00:41:58;;;;;;;3.88;2.70;;;;;;;-3.60;100.00;100860.28;5032964;28;20033;-73
2021/12/26 00:44:24;;;;;;;3.78;2.80;;;;;;;-3.54;100.00;100864.91;5046144;28;20478;-73
2021/12/26 00:46:53;;;;;;;4.40;2.70;;;;;;;-3.49;100.00;100864.34;5045743;28;20502;-73
2021/12/26 00:49:22;;;;;;;4.47;3.10;;;;;;;-3.51;100.00;100861.00;5051020;28;20121;-73
2021/12/26 00:51:50;;;;;;;3.13;2.72;;;;;;;-3.73;100.00;100854.78;5055513;28;20594;-72
2021/12/26 00:54:17;;;;;;;4.25;2.65;;;;;;;-3.74;100.00;100859.31;5052315;28;20021;-70
2021/12/26 00:56:42;;;;;;;5.30;3.17;;;;;;;-3.54;100.00;100861.41;5067339;28;20028;-73
2021/12/26 00:59:08;;;;;;;4.25;2.47;;;;;;;-3.69;100.00;100853.38;5051198;28;20028;-72
2021/12/26 01:01:34;;;;;;;4.85;3.20;;;;;;;-3.92;100.00;100849.00;5043290;28;20194;-73
2021/12/26 01:04:00;;;;;;;4.28;3.10;;;;;;;-3.84;100.00;100841.84;5044751;28;20024;-72
2021/12/26 01:06:27;;;;;;;3.75;3.00;;;;;;;-3.92;100.00;100856.19;5052335;28;20032;-74
2021/12/26 01:08:53;;;;;;;4.70;2.95;;;;;;;-3.84;100.00;100842.69;5049345;28;20029;-72
2021/12/26 01:11:36;;;;;;;4.32;3.05;;;;;;;-3.83;100.00;100849.72;5055056;28;20055;-72
2021/12/26 01:14:05;;;;;;;6.75;3.00;;;;;;;-3.77;100.00;100848.97;5042609;28;20021;-72
2021/12/26 01:16:31;;;;;;;4.53;3.10;;;;;;;-3.89;100.00;100850.44;5043086;28;20017;-71
2021/12/26 01:19:05;;;;;;;5.93;2.80;;;;;;;-3.70;100.00;100849.88;5051019;28;20071;-73
2021/12/26 01:21:31;;;;;;;5.35;3.35;;;;;;;-3.84;100.00;100849.91;5041771;28;20029;-73
2021/12/26 01:24:00;;;;;;;4.28;2.75;;;;;;;-3.77;100.00;100850.78;5049564;28;20448;-73
2021/12/26 01:26:27;;;;;;;3.45;2.75;;;;;;;-3.88;100.00;100852.13;5064963;28;20028;-73
2021/12/26 01:28:54;;;;;;;3.60;2.83;;;;;;;-3.82;100.00;100848.69;5059107;28;20487;-72
2021/12/26 01:31:20;;;;;;;4.13;3.00;;;;;;;-3.85;100.00;100843.72;5028028;28;20052;-72
2021/12/26 01:33:52;;;;;;;4.68;2.78;;;;;;;-3.74;100.00;100834.34;5012989;28;20498;-72
2021/12/26 01:36:19;;;;;;;4.30;2.65;;;;;;;-3.44;100.00;100842.31;5043726;28;20174;-73
2021/12/26 01:38:46;;;;;;;4.35;3.20;;;;;;;-3.78;100.00;100831.22;5028649;28;20208;-73
2021/12/26 01:41:13;;;;;;;6.35;3.00;;;;;;;-3.68;100.00;100832.78;5051869;28;20029;-72
2021/12/26 01:43:41;;;;;;;4.90;2.70;;;;;;;-3.74;100.00;100829.00;5063833;28;20032;-74
2021/12/26 01:46:07;;;;;;;5.07;2.78;;;;;;;-3.70;100.00;100844.50;5064994;28;20028;-73
2021/12/26 01:48:33;;;;;;;6.47;3.20;;;;;;;-3.86;100.00;100835.88;5064180;28;20078;-72
2021/12/26 01:50:59;;;;;;;4.03;3.03;;;;;;;-3.73;100.00;100841.38;5064950;28;20028;-73
2021/12/26 01:53:29;;;;;;;4.13;2.95;;;;;;;-3.73;100.00;100841.38;5051940;28;20033;-72
2021/12/26 01:55:55;;;;;;;4.80;2.97;;;;;;;-3.77;100.00;100834.72;5049196;28;20451;-73
2021/12/26 01:58:28;;;;;;;5.60;2.75;;;;;;;-3.70;100.00;100833.78;5045494;28;20082;-72
2021/12/26 02:01:00;;;;;;;7.10;2.80;;;;;;;-3.87;100.00;100821.63;5048991;28;20029;-74
2021/12/26 02:03:27;;;;;;;4.25;2.80;;;;;;;-3.83;100.00;100828.28;5049118;28;20027;-73
2021/12/26 02:05:52;;;;;;;4.93;3.05;;;;;;;-3.85;100.00;100819.59;5046872;28;20055;-72
2021/12/26 02:08:18;;;;;;;4.28;2.67;;;;;;;-3.89;100.00;100816.47;5059726;28;20111;-74
2021/12/26 02:10:44;;;;;;;4.00;2.95;;;;;;;-3.80;100.00;100821.72;5061127;28;20912;-74
2021/12/26 02:13:10;;;;;;;5.38;2.70;;;;;;;-3.86;100.00;100828.66;5044181;28;20518;-74
2021/12/26 02:15:35;;;;;;;4.18;2.50;;;;;;;-3.82;100.00;100829.09;5042610;28;20120;-74
2021/12/26 02:18:01;;;;;;;5.35;2.92;;;;;;;-3.63;100.00;100815.09;5054288;28;20186;-73
2021/12/26 02:20:47;;;;;;;5.50;3.00;;;;;;;-3.83;100.00;100806.03;5055036;28;20025;-72
2021/12/26 02:23:17;;;;;;;5.60;3.00;;;;;;;-3.92;100.00;100803.47;5065678;28;20070;-73
2021/12/26 02:28:10;;;;;;;4.88;2.65;;;;;;;-3.91;100.00;100807.78;5047986;28;20068;-73
2021/12/26 02:30:35;;;;;;;3.53;2.88;;;;;;;-3.83;100.00;100803.34;5041589;28;20040;-73
2021/12/26 02:33:04;;;;;;;4.57;2.53;;;;;;;-3.84;100.00;100804.34;5039851;28;20140;-72
2021/12/26 02:35:30;;;;;;;4.40;2.92;;;;;;;-3.63;100.00;100803.56;5043143;28;20037;-72
2021/12/26 02:37:56;;;;;;;5.90;2.90;;;;;;;-4.03;100.00;100797.72;5053279;28;20037;-72
2021/12/26 02:40:21;;;;;;;3.53;2.47;;;;;;;-3.78;100.00;100799.06;5046653;28;20383;-73
2021/12/26 02:42:47;;;;;;;5.80;2.67;;;;;;;-3.68;100.00;100797.94;5055386;28;20064;-73
2021/12/26 02:45:14;;;;;;;3.97;2.83;;;;;;;-3.82;100.00;100795.13;5060395;28;20028;-73
2021/12/26 02:47:42;;;;;;;4.35;2.72;;;;;;;-3.70;100.00;100793.59;5044332;28;20044;-73
2021/12/26 02:50:14;;;;;;;3.38;2.53;;;;;;;-3.85;100.00;100787.47;5060576;28;20115;-73
2021/12/26 02:52:40;;;;;;;4.55;2.65;;;;;;;-3.84;100.00;100786.41;5053641;28;20036;-74
2021/12/26 02:55:07;;;;;;;4.38;2.80;;;;;;;-3.73;100.00;100783.25;5054453;28;20431;-72
2021/12/26 02:57:33;;;;;;;5.30;2.85;;;;;;;-3.80;100.00;100782.38;5056341;28;20373;-74
2021/12/26 03:00:13;;;;;;;4.03;2.63;;;;;;;-3.70;100.00;100785.56;5043078;28;20545;-73
2021/12/26 03:02:41;;;;;;;3.88;2.65;;;;;;;-3.65;100.00;100781.50;5045542;28;20545;-73
2021/12/26 03:05:06;;;;;;;4.97;2.65;;;;;;;-3.80;100.00;100768.97;5055767;28;20471;-73
2021/12/26 03:07:32;;;;;;;4.38;2.55;;;;;;;-3.76;100.00;100766.72;5041580;28;20037;-73
2021/12/26 03:10:00;;;;;;;4.10;2.80;;;;;;;-3.81;100.00;100769.97;5061622;28;20028;-73
2021/12/26 03:12:32;;;;;;;4.05;2.50;;;;;;;-3.88;100.00;100761.03;5045899;28;20056;-72
2021/12/26 03:14:57;;;;;;;2.83;2.30;;;;;;;-3.82;100.00;100762.97;5029455;28;20025;-74
2021/12/26 03:17:24;;;;;;;5.88;2.70;;;;;;;-3.93;100.00;100763.47;5044152;28;20502;-74
2021/12/26 03:19:49;;;;;;;4.35;2.83;;;;;;;-3.92;100.00;100754.38;5062192;28;20046;-73
2021/12/26 03:22:15;;;;;;;5.30;2.72;;;;;;;-4.00;100.00;100752.69;5030088;28;20040;-72
2021/12/26 03:24:44;;;;;;;4.03;2.67;;;;;;;-4.10;100.00;100752.13;5052474;28;20426;-72
2021/12/26 03:27:11;;;;;;;4.72;2.45;;;;;;;-4.01;100.00;100750.19;5040879;28;20625;-74
2021/12/26 03:29:37;;;;;;;3.67;2.67;;;;;;;-3.86;100.00;100759.00;5060292;28;20028;-72
2021/12/26 03:32:03;;;;;;;6.57;2.90;;;;;;;-3.86;100.00;100759.00;5063833;28;20063;-73
2021/12/26 03:34:30;;;;;;;4.30;2.60;;;;;;;-3.94;100.00;100759.13;5041593;28;20048;-74
2021/12/26 03:36:56;;;;;;;4.15;2.53;;;;;;;-3.89;100.00;100756.69;5044142;28;20090;-74
2021/12/26 03:39:23;;;;;;;4.45;3.40;;;;;;;-3.80;100.00;100758.25;5032332;28;20032;-73
2021/12/26 03:41:49;;;;;;;4.55;2.67;;;;;;;-3.72;100.00;100758.13;5063338;28;20043;-73
2021/12/26 03:44:15;;;;;;;3.58;2.67;;;;;;;-3.72;100.00;100752.78;5039666;28;20157;-73
2021/12/26 03:46:41;;;;;;;4.35;3.08;;;;;;;-3.82;100.00;100754.94;5042739;28;20041;-74
2021/12/26 03:49:06;;;;;;;4.18;2.70;;;;;;;-3.74;100.00;100753.97;5053040;28;20525;-73
2021/12/26 03:51:33;;;;;;;4.60;2.67;;;;;;;-3.83;100.00;100766.66;5049804;28;20090;-73
2021/12/26 03:54:00;;;;;;;4.82;2.70;;;;;;;-3.75;100.00;100752.31;5045854;28;20032;-73
2021/12/26 03:56:26;;;;;;;4.88;3.15;;;;;;;-3.74;100.00;100751.28;5041708;28;20355;-74
2021/12/26 03:59:00;;;;;;;4.60;2.55;;;;;;;-3.80;100.00;100757.44;5042649;28;20223;-74
2021/12/26 04:01:27;;;;;;;3.92;2.60;;;;;;;-3.80;100.00;100755.56;5048402;28;20021;-73
2021/12/26 04:03:52;;;;;;;2.83;2.33;;;;;;;-3.73;100.00;100753.78;5053813;28;20427;-73
2021/12/26 04:06:18;;;;;;;4.13;2.67;;;;;;;-3.90;100.00;100755.88;5033986;28;20357;-73
2021/12/26 04:08:43;;;;;;;6.28;2.85;;;;;;;-3.95;100.00;100752.94;5058374;28;20037;-73
2021/12/26 04:11:09;;;;;;;3.95;2.85;;;;;;;-3.96;100.00;100737.06;5061750;28;20052;-73
2021/12/26 04:13:37;;;;;;;2.90;2.42;;;;;;;-4.01;100.00;100744.84;5060903;28;20028;-72
2021/12/26 04:16:03;;;;;;;4.75;2.55;;;;;;;-4.00;100.00;100736.59;5043798;28;20032;-72
2021/12/26 04:18:29;;;;;;;4.53;2.90;;;;;;;-3.97;100.00;100740.75;5053539;28;20033;-73
2021/12/26 04:20:54;;;;;;;4.07;2.60;;;;;;;-4.12;100.00;100733.56;5040870;28;20119;-74
2021/12/26 04:23:20;;;;;;;4.03;2.80;;;;;;;-3.88;100.00;100736.94;5039842;28;20033;-74
2021/12/26 04:25:46;;;;;;;3.97;3.25;;;;;;;-3.89;100.00;100735.28;5027114;28;20098;-73
2021/12/26 04:28:12;;;;;;;5.53;2.78;;;;;;;-3.86;100.00;100739.44;5061954;28;20020;-72
2021/12/26 04:30:38;;;;;;;4.40;2.47;;;;;;;-3.99;100.00;100737.44;5050441;28;20041;-73
2021/12/26 04:33:04;;;;;;;3.80;2.38;;;;;;;-3.88;100.00;100734.25;5039283;28;20033;-72
2021/12/26 04:35:30;;;;;;;4.00;2.58;;;;;;;-3.90;100.00;100726.41;5058079;28;20044;-74
2021/12/26 04:37:56;;;;;;;4.05;3.03;;;;;;;-3.97;100.00;100733.53;5044027;28;20033;-73
2021/12/26 04:40:21;;;;;;;4.85;2.70;;;;;;;-3.84;100.00;100729.34;5046128;28;20078;-73
2021/12/26 04:42:48;;;;;;;5.35;3.38;;;;;;;-4.09;100.00;100727.84;5045137;28;20488;-74
2021/12/26 04:45:15;;;;;;;3.97;2.63;;;;;;;-4.00;100.00;100722.38;5056646;28;20044;-72
2021/12/26 04:47:42;;;;;;;4.22;3.20;;;;;;;-4.06;100.00;100722.09;5054941;28;20797;-73
2021/12/26 04:50:13;;;;;;;4.00;2.83;;;;;;;-4.04;100.00;100727.28;5062311;28;20573;-73
2021/12/26 04:52:43;;;;;;;3.50;3.08;;;;;;;-3.87;100.00;100725.19;5053085;28;20029;-73
2021/12/26 04:55:10;;;;;;;4.90;2.75;;;;;;;-4.16;100.00;100721.59;5050207;28;20036;-73
2021/12/26 04:57:36;;;;;;;3.50;2.80;;;;;;;-3.93;100.00;100725.97;5043191;28;20078;-73
2021/12/26 05:00:15;;;;;;;4.90;3.20;;;;;;;-4.03;100.00;100720.06;5035142;28;20464;-73
2021/12/26 05:02:42;;;;;;;4.60;2.88;;;;;;;-3.88;100.00;100728.91;5051681;28;20056;-73
2021/12/26 05:05:09;;;;;;;5.03;2.85;;;;;;;-3.98;100.00;100712.31;5047119;28;20028;-73
2021/12/26 05:07:36;;;;;;;4.40;2.90;;;;;;;-3.96;100.00;100719.13;5046429;28;20067;-72
2021/12/26 05:10:02;;;;;;;5.22;3.05;;;;;;;-4.01;100.00;100710.00;5047775;28;20241;-73
2021/12/26 05:12:27;;;;;;;3.50;2.70;;;;;;;-4.16;100.00;100710.06;5063973;28;20183;-72
2021/12/26 05:14:54;;;;;;;3.72;2.88;;;;;;;-4.10;100.00;100720.00;5062304;28;20604;-73
2021/12/26 05:17:19;;;;;;;3.92;2.67;;;;;;;-3.99;100.00;100719.50;5042519;28;20029;-72
2021/12/26 05:19:44;;;;;;;4.22;2.60;;;;;;;-4.03;100.00;100718.25;5050026;28;20510;-73
2021/12/26 05:22:10;;;;;;;4.20;2.45;;;;;;;-3.95;100.00;100715.44;5041913;28;20675;-72
2021/12/26 05:24:35;;;;;;;4.60;2.83;;;;;;;-3.80;100.00;100720.75;5044537;28;20029;-73
2021/12/26 05:27:01;;;;;;;2.58;2.28;;;;;;;-4.11;100.00;100719.16;5059621;28;20074;-72
2021/12/26 05:29:26;;;;;;;3.88;2.65;;;;;;;-4.08;100.00;100705.41;5044200;28;20395;-73
2021/12/26 05:31:53;;;;;;;3.63;2.63;;;;;;;-3.95;100.00;100710.09;5065236;28;20048;-72
2021/12/26 05:34:19;;;;;;;4.88;2.72;;;;;;;-4.06;100.00;100714.06;5058654;28;20032;-72
2021/12/26 05:36:44;;;;;;;5.32;3.13;;;;;;;-3.93;100.00;100702.69;5054844;28;20478;-73
2021/12/26 05:39:10;;;;;;;4.03;2.80;;;;;;;-3.90;100.00;100702.31;5039988;28;20101;-73
2021/12/26 05:41:35;;;;;;;3.13;2.80;;;;;;;-4.00;100.00;100698.25;5055657;28;20033;-73
2021/12/26 05:44:01;;;;;;;4.93;2.80;;;;;;;-4.11;100.00;100696.94;5034858;28;20680;-73
2021/12/26 05:46:27;;;;;;;4.72;2.80;;;;;;;-3.99;100.00;100697.25;5065231;28;20033;-74
2021/12/26 05:48:52;;;;;;;3.83;2.78;;;;;;;-4.00;100.00;100685.72;5044096;28;20036;-73
2021/12/26 05:51:18;;;;;;;3.67;2.95;;;;;;;-4.17;100.00;100687.78;5066603;28;20483;-73
2021/12/26 05:53:45;;;;;;;4.82;3.10;;;;;;;-4.14;100.00;100681.25;5058179;28;20043;-73
2021/12/26 05:56:10;;;;;;;3.33;2.40;;;;;;;-4.15;100.00;100691.13;5026032;28;20094;-72
2021/12/26 05:58:36;;;;;;;3.38;2.45;;;;;;;-4.04;100.00;100686.28;5031132;28;20052;-73
2021/12/26 06:01:02;;;;;;;4.30;3.17;;;;;;;-4.16;100.00;100678.75;5062394;28;20071;-73
2021/12/26 06:03:28;;;;;;;3.60;2.75;;;;;;;-4.17;100.00;100692.31;5044426;28;20116;-73
2021/12/26 06:05:53;;;;;;;4.18;2.88;;;;;;;-4.06;100.00;100689.97;5055402;28;20111;-73
2021/12/26 06:08:19;;;;;;;3.80;2.88;;;;;;;-4.22;100.00;100694.75;5039489;28;20067;-73
2021/12/26 06:10:46;;;;;;;5.00;2.95;;;;;;;-4.31;100.00;100685.97;5063694;28;20036;-73
2021/12/26 06:13:12;;;;;;;4.03;2.90;;;;;;;-4.27;100.00;100692.63;5028192;28;20565;-74
2021/12/26 06:15:37;;;;;;;4.10;2.97;;;;;;;-4.31;100.00;100702.88;5048532;28;20037;-73
2021/12/26 06:18:02;;;;;;;3.70;2.85;;;;;;;-4.30;100.00;100703.69;5040581;28;20275;-74
2021/12/26 06:20:28;;;;;;;3.95;2.85;;;;;;;-4.30;100.00;100698.34;5057750;28;20471;-73
2021/12/26 06:22:54;;;;;;;4.60;2.95;;;;;;;-4.24;100.00;100697.59;5048159;28;20382;-73
2021/12/26 06:25:19;;;;;;;4.43;3.08;;;;;;;-3.99;100.00;100700.75;5068228;28;20458;-73
2021/12/26 06:27:45;;;;;;;3.70;2.95;;;;;;;-4.40;100.00;100692.47;5050297;28;20036;-73
2021/12/26 06:30:11;;;;;;;6.40;3.08;;;;;;;-4.34;100.00;100702.44;5041742;28;20147;-73
2021/12/26 06:32:37;;;;;;;4.38;2.85;;;;;;;-4.33;100.00;100696.91;5025315;28;20131;-73
2021/12/26 06:35:03;;;;;;;4.75;3.08;;;;;;;-4.38;100.00;100693.09;5042986;28;20119;-74
2021/12/26 06:37:29;;;;;;;4.25;2.70;;;;;;;-4.26;100.00;100691.63;5043393;28;20503;-73
2021/12/26 06:39:55;;;;;;;5.50;3.33;;;;;;;-4.27;100.00;100697.97;5043826;28;20037;-74
2021/12/26 06:42:20;;;;;;;4.75;3.17;;;;;;;-4.17;100.00;100695.00;5055144;28;20558;-73
2021/12/26 06:44:46;;;;;;;4.13;2.85;;;;;;;-4.44;100.00;100687.47;5055631;28;20043;-73
2021/12/26 06:47:13;;;;;;;4.55;2.92;;;;;;;-4.21;100.00;100688.34;5060706;28;20453;-72
2021/12/26 06:49:41;;;;;;;3.38;2.45;;;;;;;-4.22;100.00;100681.34;5030907;28;20461;-73
2021/12/26 06:52:07;;;;;;;3.90;2.80;;;;;;;-4.41;100.00;100680.09;5059189;28;20111;-73
2021/12/26 06:54:33;;;;;;;5.15;2.65;;;;;;;-4.24;100.00;100676.19;5044512;28;20124;-74
2021/12/26 06:56:58;;;;;;;2.90;2.50;;;;;;;-4.32;100.00;100676.31;5048229;28;20043;-72
2021/12/26 06:59:24;;;;;;;3.90;2.85;;;;;;;-4.08;100.00;100683.16;5057317;28;20064;-75
2021/12/26 07:01:59;;;;;;;3.67;3.00;;;;;;;-4.08;100.00;100673.28;5036800;28;20032;-74
2021/12/26 07:04:25;;;;;;;4.75;2.92;;;;;;;-4.13;100.00;100672.16;5023272;28;20029;-74
2021/12/26 07:06:53;;;;;;;3.17;2.55;;;;;;;-4.14;100.00;100667.84;5057616;28;20043;-74
2021/12/26 07:09:18;;;;;;;2.97;2.72;;;;;;;-4.35;100.00;100665.97;5036352;28;20518;-72
2021/12/26 07:11:44;;;;;;;2.97;2.50;;;;;;;-4.38;100.00;100663.66;5060215;28;20112;-73
2021/12/26 07:14:09;;;;;;;4.97;3.35;;;;;;;-4.33;100.00;100656.75;5053407;28;20040;-75
2021/12/26 07:16:35;;;;;;;4.57;2.92;;;;;;;-4.25;100.00;100667.34;5041824;28;20511;-74
2021/12/26 07:19:00;;;;;;;7.15;3.10;;;;;;;-4.32;100.00;100670.94;5057873;28;20040;-74
2021/12/26 07:21:26;;;;;;;6.05;2.78;;;;;;;-4.26;100.00;100665.66;5030472;28;20036;-73
2021/12/26 07:23:55;;;;;;;4.45;2.70;;;;;;;-4.41;100.00;100662.22;5053497;28;20499;-74
2021/12/26 07:26:23;;;;;;;4.47;3.00;;;;;;;-4.27;100.00;100673.88;5039504;28;20032;-73
2021/12/26 07:28:52;;;;;;;4.30;3.33;;;;;;;-4.19;100.00;100672.94;5052718;28;20089;-73
2021/12/26 07:31:18;;;;;;;3.78;2.95;;;;;;;-4.21;100.00;100674.97;5015230;28;20048;-73
2021/12/26 07:33:43;;;;;;;4.47;3.03;;;;;;;-4.22;100.00;100668.78;5045694;28;20037;-73
2021/12/26 07:36:09;;;;;;;5.00;2.92;;;;;;;-4.25;100.00;100671.84;5053640;28;20044;-74
2021/12/26 07:38:34;;;;;;;4.63;2.97;;;;;;;-4.29;100.00;100679.41;5036045;28;20138;-73
2021/12/26 07:41:00;;;;;;;3.80;2.95;;;;;;;-4.26;100.00;100676.38;5040345;28;20506;-74
2021/12/26 07:43:25;;;;;;;4.97;3.05;;;;;;;-4.18;100.00;100679.94;5047426;28;20499;-74
2021/12/26 07:45:51;;;;;;;5.25;3.03;;;;;;;-4.15;100.00;100680.41;5044595;28;20028;-74
2021/12/26 07:48:16;;;;;;;4.03;3.17;;;;;;;-4.14;100.00;100682.06;5023137;28;20044;-74
2021/12/26 07:50:42;;;;;;;5.45;3.28;;;;;;;-4.21;100.00;100680.31;5049133;28;20127;-73
2021/12/26 07:53:10;;;;;;;3.53;2.72;;;;;;;-4.25;100.00;100682.53;5061556;28;20039;-73
2021/12/26 07:55:36;;;;;;;3.90;3.20;;;;;;;-4.15;100.00;100685.78;5062295;28;20375;-74
2021/12/26 07:58:03;;;;;;;4.15;3.10;;;;;;;-4.05;100.00;100677.41;5056470;28;20028;-74
2021/12/26 08:00:28;;;;;;;5.30;3.03;;;;;;;-4.02;100.00;100681.56;5061438;28;20036;-73
2021/12/26 08:03:07;;;;;;;4.05;3.08;;;;;;;-4.16;100.00;100680.59;5055797;28;20032;-73
2021/12/26 08:05:32;;;;;;;6.50;4.03;;;;;;;-4.06;100.00;100675.75;5052792;28;20116;-73
2021/12/26 08:08:08;;;;;;;4.65;3.10;;;;;;;-4.04;100.00;100680.94;5016617;28;20029;-74
2021/12/26 08:10:34;;;;;;;4.68;3.00;;;;;;;-3.85;100.00;100666.91;5042430;28;20457;-74
2021/12/26 08:13:01;;;;;;;3.15;2.50;;;;;;;-3.91;100.00;100665.81;5051115;28;20044;-73
2021/12/26 08:15:27;;;;;;;4.15;2.95;;;;;;;-3.90;100.00;100677.38;5039477;28;20024;-72
2021/12/26 08:17:52;;;;;;;5.18;3.15;;;;;;;-3.62;100.00;100673.91;5026686;28;20041;-73
2021/12/26 08:20:18;;;;;;;3.25;2.95;;;;;;;-3.62;100.00;100680.09;5040393;28;20388;-72
2021/12/26 08:22:43;;;;;;;4.78;3.22;;;;;;;-3.52;100.00;100677.09;5056817;28;20036;-76
2021/12/26 08:25:10;;;;;;;5.05;3.10;;;;;;;-3.38;100.00;100678.88;5057086;28;20127;-74
2021/12/26 08:27:35;;;;;;;3.97;3.20;;;;;;;-3.34;100.00;100682.00;5048530;28;20411;-75
2021/12/26 08:30:05;;;;;;;5.47;3.40;;;;;;;-3.50;100.00;100672.38;5048833;28;20036;-74
2021/12/26 08:32:33;;;;;;;6.18;3.10;;;;;;;-3.39;100.00;100674.53;5049667;28;20337;-75
2021/12/26 08:35:04;;;;;;;5.38;3.03;;;;;;;-3.25;100.00;100675.44;5056472;28;20059;-74
2021/12/26 08:37:30;;;;;;;5.70;3.70;;;;;;;-3.29;100.00;100682.22;5030490;28;20053;-73
2021/12/26 08:39:56;;;;;;;4.65;3.20;;;;;;;-3.37;100.00;100677.00;5029910;28;20044;-73
2021/12/26 08:42:21;;;;;;;5.60;4.30;;;;;;;-3.18;100.00;100679.00;5045809;28;20292;-74
2021/12/26 08:44:47;;;;;;;5.05;3.47;;;;;;;-2.86;100.00;100683.97;5044890;28;20028;-74
2021/12/26 08:47:14;;;;;;;6.18;3.80;;;;;;;-2.79;100.00;100687.50;5045471;28;20401;-74
2021/12/26 08:49:40;;;;;;;7.00;3.90;;;;;;;-2.96;100.00;100679.75;5060019;28;20029;-74
2021/12/26 08:52:07;;;;;;;6.05;3.75;;;;;;;-3.03;100.00;100676.22;5033090;28;20364;-73
2021/12/26 08:54:34;;;;;;;5.70;3.53;;;;;;;-3.05;100.00;100686.31;5066972;28;20036;-74
2021/12/26 08:57:03;;;;;;;4.53;3.25;;;;;;;-2.87;100.00;100690.34;5032374;28;20060;-73
2021/12/26 08:59:30;;;;;;;5.10;3.58;;;;;;;-2.73;100.00;100689.41;5046258;28;20112;-74
2021/12/26 09:02:02;;;;;;;4.50;3.45;;;;;;;-2.74;100.00;100695.78;5034099;28;20037;-74
2021/12/26 09:04:29;;;;;;;6.32;3.28;;;;;;;-2.64;100.00;100693.59;5057634;28;20036;-75
2021/12/26 09:06:55;;;;;;;4.63;3.30;;;;;;;-2.45;100.00;100691.19;5047669;28;20060;-74
2021/12/26 09:09:25;;;;;;;6.03;3.67;;;;;;;-2.74;100.00;100685.03;5017728;28;20178;-74
2021/12/26 09:11:51;;;;;;;4.45;3.60;;;;;;;-2.48;100.00;100691.56;5049789;28;20043;-74
2021/12/26 09:14:16;;;;;;;6.47;3.90;;;;;;;-2.69;100.00;100681.78;5047407;28;20607;-74
2021/12/26 09:16:42;;;;;;;6.18;4.05;;;;;;;-2.63;100.00;100680.97;5047206;28;20483;-74
2021/12/26 09:19:07;;;;;;;5.18;3.60;;;;;;;-2.34;100.00;100687.94;5056747;28;20040;-73
2021/12/26 09:21:35;;;;;;;5.65;3.75;;;;;;;-2.49;100.00;100685.41;5045664;28;20544;-74
2021/12/26 09:24:01;;;;;;;4.10;3.42;;;;;;;-2.54;100.00;100679.78;5055210;28;20081;-74
2021/12/26 09:26:27;;;;;;;5.45;3.63;;;;;;;-2.25;100.00;100673.31;5065075;28;20488;-74
2021/12/26 09:28:52;;;;;;;4.95;3.63;;;;;;;-2.41;100.00;100673.63;5047851;28;20525;-73
2021/12/26 09:31:17;;;;;;;5.40;3.90;;;;;;;-2.46;100.00;100673.41;5034450;28;20052;-74
2021/12/26 09:33:43;;;;;;;6.30;4.15;;;;;;;-2.14;100.00;100676.44;5060608;28;20477;-76
2021/12/26 09:36:09;;;;;;;5.55;3.83;;;;;;;-2.08;100.00;100681.00;5058237;28;20036;-74
2021/12/26 09:38:35;;;;;;;10.68;4.32;;;;;;;-2.04;100.00;100687.59;5058067;28;20029;-75
2021/12/26 09:41:00;;;;;;;5.65;3.83;;;;;;;-2.19;100.00;100690.47;5029284;28;20492;-73
2021/12/26 09:43:26;;;;;;;6.18;3.78;;;;;;;-1.62;100.00;100684.78;5053114;28;20323;-74
2021/12/26 09:45:52;;;;;;;6.68;4.13;;;;;;;-1.91;100.00;100676.88;5044917;28;20098;-73
2021/12/26 09:48:18;;;;;;;5.90;4.22;;;;;;;-1.96;100.00;100678.53;5039810;28;20467;-74
2021/12/26 09:50:43;;;;;;;5.28;4.00;;;;;;;-1.71;100.00;100671.53;5064529;28;20429;-73
2021/12/26 09:53:13;;;;;;;5.40;4.00;;;;;;;-2.04;100.00;100658.88;5053930;28;20036;-72
2021/12/26 09:55:39;;;;;;;6.07;4.13;;;;;;;-1.79;100.00;100657.47;5057680;28;20024;-73
2021/12/26 09:58:05;;;;;;;6.10;4.30;;;;;;;-2.06;100.00;100654.75;5037115;28;20036;-73
2021/12/26 10:00:40;;;;;;;6.38;4.28;;;;;;;-1.58;100.00;100659.97;5053943;28;20029;-73
2021/12/26 10:03:22;;;;;;;5.70;4.03;;;;;;;-2.05;100.00;100651.00;5055936;28;20564;-74
2021/12/26 10:06:12;;;;;;;5.15;3.80;;;;;;;-1.53;100.00;100646.72;5044940;28;20087;-73
2021/12/26 10:08:53;;;;;;;5.38;3.78;;;;;;;-1.61;100.00;100644.25;5047521;28;20126;-73
2021/12/26 10:11:21;;;;;;;5.78;4.40;;;;;;;-1.70;100.00;100630.19;5060257;28;20025;-73
2021/12/26 10:13:48;;;;;;;5.60;3.90;;;;;;;-1.75;100.00;100629.97;5038379;28;20021;-73
2021/12/26 10:16:20;;;;;;;7.38;4.43;;;;;;;-1.87;100.00;100629.78;5055085;28;20029;-73
2021/12/26 10:18:46;;;;;;;5.78;4.22;;;;;;;-1.92;100.00;100618.81;5056870;28;20414;-73
2021/12/26 10:21:24;;;;;;;8.73;4.38;;;;;;;-2.05;100.00;100626.84;5046728;28;20419;-73
2021/12/26 10:23:51;;;;;;;5.43;4.35;;;;;;;-1.90;100.00;100622.13;5058099;28;20021;-73
2021/12/26 10:26:20;;;;;;;5.35;4.22;;;;;;;-1.78;100.00;100616.13;5027473;28;20021;-73
2021/12/26 10:29:08;;;;;;;7.20;4.93;;;;;;;-1.59;100.00;100619.84;5046564;28;20036;-73
2021/12/26 10:31:35;;;;;;;6.78;4.07;;;;;;;-1.99;100.00;100611.78;5044129;28;20348;-72
2021/12/26 10:34:00;;;;;;;5.38;4.30;;;;;;;-1.76;100.00;100603.31;5044509;28;20028;-74
2021/12/26 10:36:29;;;;;;;7.75;4.65;;;;;;;-1.72;100.00;100609.91;5042040;28;20082;-74
2021/12/26 10:39:12;;;;;;;9.23;4.65;;;;;;;-1.53;100.00;100602.88;5049946;28;20392;-74
2021/12/26 10:41:43;;;;;;;7.32;4.78;;;;;;;-1.62;100.00;100602.28;5058635;28;20443;-74
2021/12/26 10:44:20;;;;;;;5.28;4.10;;;;;;;-1.55;100.00;100589.66;5060484;28;20105;-73
2021/12/26 10:46:52;;;;;;;6.80;4.75;;;;;;;-1.19;100.00;100588.34;5064656;28;20021;-73
2021/12/26 10:49:38;;;;;;;7.38;4.80;;;;;;;-1.16;100.00;100592.50;5045307;28;20124;-74
2021/12/26 10:52:11;;;;;;;7.20;5.20;;;;;;;-1.31;100.00;100584.66;5065643;28;20025;-74
2021/12/26 10:54:41;;;;;;;5.28;4.53;;;;;;;-1.29;100.00;100587.97;5061589;28;20106;-74
2021/12/26 10:57:20;;;;;;;6.40;4.63;;;;;;;-1.25;100.00;100589.19;5054169;28;20037;-73
2021/12/26 10:59:57;;;;;;;7.82;4.88;;;;;;;-1.04;100.00;100593.50;5061022;28;20029;-73
2021/12/26 11:02:26;;;;;;;7.53;5.50;;;;;;;-0.94;100.00;100587.66;5045260;28;20024;-73
2021/12/26 11:04:55;;;;;;;8.23;4.65;;;;;;;-0.86;100.00;100582.03;5045163;28;20391;-73
2021/12/26 11:07:21;;;;;;;8.75;5.03;;;;;;;-0.72;100.00;100587.38;5051382;28;20092;-74
2021/12/26 11:10:00;;;;;;;6.90;5.55;;;;;;;-0.64;100.00;100579.91;5048336;28;20386;-73
2021/12/26 11:12:37;;;;;;;7.60;4.85;;;;;;;-0.74;100.00;100582.19;5062299;28;20035;-73
2021/12/26 11:15:04;;;;;;;5.80;4.60;;;;;;;-0.59;100.00;100584.59;5043425;28;20025;-74
2021/12/26 11:17:32;;;;;;;7.18;5.60;;;;;;;-0.58;100.00;100575.50;5045285;28;20574;-73
2021/12/26 11:19:59;;;;;;;7.45;5.30;;;;;;;-0.74;100.00;100568.72;5046388;28;20036;-72